createdAt,value
2023-03-03T00:00:43.425Z,2.14
2023-03-03T00:03:11.945Z,2.14
2023-03-03T00:05:40.532Z,2.13
2023-03-03T00:08:09.566Z,2.11
2023-03-03T00:10:37.228Z,2.12
2023-03-03T00:13:04.739Z,2.14
2023-03-03T00:15:32.333Z,2.15
2023-03-03T00:17:59.879Z,2.13
2023-03-03T00:20:28.641Z,2.11
2023-03-03T00:22:56.351Z,2.08
2023-03-03T00:25:29.647Z,2.06
2023-03-03T00:27:57.126Z,2.07
2023-03-03T00:30:25.425Z,2.09
2023-03-03T00:32:53.250Z,2.08
2023-03-03T00:35:24.609Z,2.07
2023-03-03T00:37:53.073Z,2.07
2023-03-03T00:40:23.844Z,2.06
2023-03-03T00:42:53.506Z,2.08
2023-03-03T00:45:25.546Z,2.09
2023-03-03T00:47:53.098Z,2.11
2023-03-03T00:50:28.478Z,2.14
2023-03-03T00:53:01.242Z,2.16
2023-03-03T00:55:28.963Z,2.17
2023-03-03T00:57:57.835Z,2.15
2023-03-03T01:00:25.278Z,2.17
2023-03-03T01:02:53.153Z,2.18
2023-03-03T01:05:20.772Z,2.20
2023-03-03T01:07:48.296Z,2.20
2023-03-03T01:10:15.813Z,2.20
2023-03-03T01:12:43.446Z,2.25
2023-03-03T01:15:12.891Z,2.25
2023-03-03T01:17:41.657Z,2.26
2023-03-03T01:20:10.032Z,2.25
2023-03-03T01:22:37.614Z,2.27
2023-03-03T01:25:05.347Z,2.27
2023-03-03T01:27:32.850Z,2.28
2023-03-03T01:30:00.492Z,2.30
2023-03-03T01:32:29.950Z,2.32
2023-03-03T01:34:57.492Z,2.33
2023-03-03T01:37:24.973Z,2.34
2023-03-03T01:39:52.797Z,2.33
2023-03-03T01:42:20.508Z,2.34
2023-03-03T01:44:48.205Z,2.35
2023-03-03T01:47:15.878Z,2.35
2023-03-03T01:49:45.361Z,2.36
2023-03-03T01:52:13.955Z,2.36
2023-03-03T01:54:42.742Z,2.36
2023-03-03T01:57:12.214Z,2.35
2023-03-03T01:59:41.695Z,2.30
2023-03-03T02:02:09.260Z,2.28
2023-03-03T02:04:36.804Z,2.27
2023-03-03T02:07:11.254Z,2.26
2023-03-03T02:09:41.321Z,2.26
2023-03-03T02:12:09.550Z,2.25
2023-03-03T02:14:37.080Z,2.21
2023-03-03T02:17:04.697Z,2.22
2023-03-03T02:19:34.507Z,2.25
2023-03-03T02:22:03.256Z,2.26
2023-03-03T02:24:33.629Z,2.26
2023-03-03T02:27:02.493Z,2.28
2023-03-03T02:29:29.998Z,2.29
2023-03-03T02:31:57.683Z,2.28
2023-03-03T02:34:25.478Z,2.26
2023-03-03T02:36:52.943Z,2.26
2023-03-03T02:39:23.970Z,2.27
2023-03-03T02:41:53.238Z,2.28
2023-03-03T02:44:22.722Z,2.28
2023-03-03T02:46:50.679Z,2.30
2023-03-03T02:49:19.274Z,2.33
2023-03-03T02:51:46.759Z,2.34
2023-03-03T02:54:15.063Z,2.36
2023-03-03T02:56:42.610Z,2.36
2023-03-03T02:59:10.359Z,2.37
2023-03-03T03:01:39.275Z,2.36
2023-03-03T03:04:08.351Z,2.35
2023-03-03T03:06:36.803Z,2.35
2023-03-03T03:09:04.470Z,2.36
2023-03-03T03:11:31.938Z,2.37
2023-03-03T03:13:59.513Z,2.38
2023-03-03T03:16:27.038Z,2.39
2023-03-03T03:18:56.721Z,2.41
2023-03-03T03:21:24.256Z,2.43
2023-03-03T03:23:51.770Z,2.44
2023-03-03T03:26:21.044Z,2.46
2023-03-03T03:28:48.633Z,2.44
2023-03-03T03:31:16.186Z,2.45
2023-03-03T03:33:43.641Z,2.46
2023-03-03T03:36:12.591Z,2.46
2023-03-03T03:38:40.150Z,2.46
2023-03-03T03:41:07.867Z,2.46
2023-03-03T03:43:35.378Z,2.45
2023-03-03T03:46:02.901Z,2.46
2023-03-03T03:48:30.481Z,2.45
2023-03-03T03:50:58.118Z,2.47
2023-03-03T03:53:27.166Z,2.48
2023-03-03T03:55:54.622Z,2.47
2023-03-03T03:58:22.499Z,2.47
2023-03-03T04:00:49.972Z,2.46
2023-03-03T04:03:17.760Z,2.45
2023-03-03T04:05:45.275Z,2.45
2023-03-03T04:08:12.943Z,2.44
2023-03-03T04:10:41.806Z,2.46
2023-03-03T04:13:09.296Z,2.45
2023-03-03T04:15:36.861Z,2.46
2023-03-03T04:18:04.658Z,2.47
2023-03-03T04:20:32.303Z,2.48
2023-03-03T04:22:59.774Z,2.49
2023-03-03T04:25:27.324Z,2.49
2023-03-03T04:27:56.257Z,2.52
2023-03-03T04:30:23.747Z,2.52
2023-03-03T04:32:51.236Z,2.54
2023-03-03T04:35:18.953Z,2.53
2023-03-03T04:37:46.437Z,2.50
2023-03-03T04:40:13.996Z,2.50
2023-03-03T04:42:41.466Z,2.50
2023-03-03T04:45:10.986Z,2.48
2023-03-03T04:47:38.611Z,2.46
2023-03-03T04:50:06.596Z,2.47
2023-03-03T04:52:34.195Z,2.45
2023-03-03T04:55:01.709Z,2.43
2023-03-03T04:57:29.183Z,2.43
2023-03-03T04:59:56.642Z,2.43
2023-03-03T05:02:25.502Z,2.45
2023-03-03T05:04:53.214Z,2.44
2023-03-03T05:07:20.948Z,2.44
2023-03-03T05:09:48.416Z,2.44
2023-03-03T05:12:15.878Z,2.44
2023-03-03T05:14:43.459Z,2.43
2023-03-03T05:17:10.961Z,2.43
2023-03-03T05:19:39.770Z,2.44
2023-03-03T05:22:07.219Z,2.43
2023-03-03T05:24:34.750Z,2.42
2023-03-03T05:27:03.368Z,2.40
2023-03-03T05:29:31.562Z,2.40
2023-03-03T05:31:59.122Z,2.41
2023-03-03T05:34:26.639Z,2.41
2023-03-03T05:36:55.581Z,2.42
2023-03-03T05:39:23.289Z,2.44
2023-03-03T05:41:50.760Z,2.42
2023-03-03T05:44:20.510Z,2.42
2023-03-03T05:46:48.240Z,2.41
2023-03-03T05:49:15.772Z,2.40
2023-03-03T05:51:43.325Z,2.40
2023-03-03T05:54:13.080Z,2.39
2023-03-03T05:56:40.559Z,2.38
2023-03-03T05:59:08.066Z,2.38
2023-03-03T06:01:35.652Z,2.37
2023-03-03T06:04:03.187Z,2.34
2023-03-03T06:06:30.700Z,2.34
2023-03-03T06:08:58.225Z,2.32
2023-03-03T06:11:27.377Z,2.31
2023-03-03T06:13:54.953Z,2.31
2023-03-03T06:16:22.459Z,2.31
2023-03-03T06:18:50.041Z,2.31
2023-03-03T06:21:17.531Z,2.30
2023-03-03T06:23:45.056Z,2.32
2023-03-03T06:26:12.573Z,2.33
2023-03-03T06:28:41.433Z,2.34
2023-03-03T06:31:08.868Z,2.37
2023-03-03T06:33:36.516Z,2.37
2023-03-03T06:36:05.798Z,2.38
2023-03-03T06:38:33.381Z,2.37
2023-03-03T06:41:02.163Z,2.37
2023-03-03T06:43:29.682Z,2.38
2023-03-03T06:45:58.662Z,2.40
2023-03-03T06:48:26.162Z,2.41
2023-03-03T06:50:53.655Z,2.43
2023-03-03T06:53:21.180Z,2.43
2023-03-03T06:55:48.651Z,2.44
2023-03-03T06:58:17.393Z,2.44
2023-03-03T07:00:45.391Z,2.42
2023-03-03T07:03:15.694Z,2.41
2023-03-03T07:05:43.330Z,2.40
2023-03-03T07:08:12.403Z,2.41
2023-03-03T07:10:39.898Z,2.41
2023-03-03T07:13:13.630Z,2.41
2023-03-03T07:15:41.181Z,2.43
2023-03-03T07:18:10.830Z,2.45
2023-03-03T07:20:41.110Z,2.48
2023-03-03T07:23:11.445Z,2.50
2023-03-03T07:25:38.932Z,2.54
2023-03-03T07:28:12.360Z,2.55
2023-03-03T07:30:39.822Z,2.56
2023-03-03T07:33:09.565Z,2.56
2023-03-03T07:35:38.662Z,2.57
2023-03-03T07:38:14.265Z,2.57
2023-03-03T07:40:42.463Z,2.58
2023-03-03T07:43:18.344Z,2.58
2023-03-03T07:45:45.915Z,2.57
2023-03-03T07:48:17.775Z,2.57
2023-03-03T07:50:45.386Z,2.57
2023-03-03T07:53:16.213Z,2.57
2023-03-03T07:55:45.773Z,2.58
2023-03-03T07:58:18.685Z,2.60
2023-03-03T08:01:13.519Z,2.62
2023-03-03T08:03:41.006Z,2.64
2023-03-03T08:06:10.999Z,2.65
2023-03-03T08:08:43.751Z,2.68
2023-03-03T08:11:11.228Z,2.71
2023-03-03T08:13:39.402Z,2.71
2023-03-03T08:16:19.868Z,2.73
2023-03-03T08:18:47.854Z,2.73
2023-03-03T08:21:15.409Z,2.74
2023-03-03T08:23:44.824Z,2.73
2023-03-03T08:26:13.982Z,2.74
2023-03-03T08:28:41.579Z,2.76
2023-03-03T08:31:18.465Z,2.78
2023-03-03T08:33:49.935Z,2.81
2023-03-03T08:36:17.410Z,2.84
2023-03-03T08:38:46.289Z,2.89
2023-03-03T08:41:13.946Z,2.93
2023-03-03T08:43:41.462Z,2.97
2023-03-03T08:46:10.331Z,3.02
2023-03-03T08:48:37.927Z,3.05
2023-03-03T08:51:05.989Z,3.06
2023-03-03T08:53:36.371Z,3.07
2023-03-03T08:56:05.413Z,3.08
2023-03-03T08:58:35.430Z,3.12
2023-03-03T09:01:03.578Z,3.16
2023-03-03T09:03:31.052Z,3.19
2023-03-03T09:05:58.585Z,3.23
2023-03-03T09:08:26.166Z,3.27
2023-03-03T09:10:53.601Z,3.33
2023-03-03T09:13:22.465Z,3.37
2023-03-03T09:15:50.506Z,3.39
2023-03-03T09:18:18.789Z,3.43
2023-03-03T09:20:46.552Z,3.47
2023-03-03T09:23:37.931Z,3.50
2023-03-03T09:26:27.085Z,3.56
2023-03-03T09:28:56.505Z,3.59
2023-03-03T09:31:26.782Z,3.60
2023-03-03T09:33:57.724Z,3.62
2023-03-03T09:36:26.251Z,3.63
2023-03-03T09:38:54.202Z,3.67
2023-03-03T09:41:40.451Z,3.74
2023-03-03T09:44:22.550Z,3.80
2023-03-03T09:46:53.664Z,3.88
2023-03-03T09:49:26.297Z,3.93
2023-03-03T09:51:57.318Z,3.98
2023-03-03T09:54:48.838Z,4.03
2023-03-03T09:57:17.244Z,4.10
2023-03-03T09:59:52.873Z,4.17
2023-03-03T10:02:24.056Z,4.22
2023-03-03T10:05:00.120Z,4.26
2023-03-03T10:07:29.108Z,4.31
2023-03-03T10:10:23.600Z,4.34
2023-03-03T10:12:53.805Z,4.38
2023-03-03T10:15:31.464Z,4.40
2023-03-03T10:17:59.958Z,4.44
2023-03-03T10:20:40.506Z,4.49
2023-03-03T10:23:21.114Z,4.54
2023-03-03T10:25:51.916Z,4.54
2023-03-03T10:28:22.437Z,4.52
2023-03-03T10:31:04.802Z,4.49
2023-03-03T10:33:38.075Z,4.45
2023-03-03T10:36:23.247Z,4.41
2023-03-03T10:38:56.802Z,4.37
2023-03-03T10:41:28.513Z,4.38
2023-03-03T10:43:59.734Z,4.42
2023-03-03T10:46:34.980Z,4.50
2023-03-03T10:49:16.209Z,4.59
2023-03-03T10:51:45.617Z,4.70
2023-03-03T10:54:20.126Z,4.85
2023-03-03T10:56:53.440Z,5.03
2023-03-03T10:59:32.452Z,5.30
2023-03-03T11:02:02.283Z,5.52
2023-03-03T11:04:41.466Z,5.76
2023-03-03T11:07:10.178Z,5.91
2023-03-03T11:09:44.598Z,5.99
2023-03-03T11:12:16.397Z,6.05
2023-03-03T11:14:47.755Z,6.08
2023-03-03T11:17:17.665Z,6.14
2023-03-03T11:19:48.767Z,6.25
2023-03-03T11:22:19.913Z,6.37
2023-03-03T11:24:51.130Z,6.45
2023-03-03T11:27:27.459Z,6.50
2023-03-03T11:29:59.138Z,6.51
2023-03-03T11:32:32.167Z,6.53
2023-03-03T11:35:01.668Z,6.53
2023-03-03T11:37:30.518Z,6.54
2023-03-03T11:39:59.150Z,6.55
2023-03-03T11:42:27.740Z,6.58
2023-03-03T11:44:56.408Z,6.64
2023-03-03T11:47:26.674Z,6.69
2023-03-03T11:49:57.446Z,6.75
2023-03-03T11:52:26.788Z,6.78
2023-03-03T11:54:55.395Z,6.81
2023-03-03T11:57:23.954Z,6.82
2023-03-03T11:59:54.970Z,6.79
2023-03-03T12:02:32.139Z,6.76
2023-03-03T12:05:01.329Z,6.79
2023-03-03T12:07:30.915Z,6.88
2023-03-03T12:10:01.747Z,6.99
2023-03-03T12:12:30.665Z,7.04
2023-03-03T12:15:04.244Z,7.08
2023-03-03T12:17:40.873Z,7.14
2023-03-03T12:20:11.071Z,7.14
2023-03-03T12:22:39.580Z,7.11
2023-03-03T12:25:13.324Z,7.06
2023-03-03T12:27:42.269Z,7.05
2023-03-03T12:30:13.220Z,7.07
2023-03-03T12:32:47.028Z,7.02
2023-03-03T12:35:17.296Z,6.99
2023-03-03T12:37:48.187Z,6.98
2023-03-03T12:40:18.252Z,7.00
2023-03-03T12:42:51.916Z,7.05
2023-03-03T12:45:29.259Z,7.04
2023-03-03T12:47:57.940Z,7.01
2023-03-03T12:50:28.811Z,6.94
2023-03-03T12:52:58.695Z,6.87
2023-03-03T12:55:27.807Z,6.85
2023-03-03T12:57:57.110Z,6.84
2023-03-03T13:00:25.880Z,6.83
2023-03-03T13:03:11.088Z,6.80
2023-03-03T13:05:45.919Z,6.80
2023-03-03T13:08:22.338Z,6.77
2023-03-03T13:10:50.912Z,6.73
2023-03-03T13:13:19.273Z,6.69
2023-03-03T13:15:55.416Z,6.65
2023-03-03T13:18:28.353Z,6.63
2023-03-03T13:20:58.437Z,6.61
2023-03-03T13:23:31.821Z,6.60
2023-03-03T13:25:59.916Z,6.57
2023-03-03T13:28:29.784Z,6.57
2023-03-03T13:30:58.146Z,6.58
2023-03-03T13:33:27.178Z,6.57
2023-03-03T13:35:55.407Z,6.56
2023-03-03T13:38:25.151Z,6.54
2023-03-03T13:40:53.938Z,6.52
2023-03-03T13:43:23.061Z,6.52
2023-03-03T13:45:59.325Z,6.51
2023-03-03T13:48:32.487Z,6.51
2023-03-03T13:51:00.997Z,6.50
2023-03-03T13:53:38.203Z,6.49
2023-03-03T13:56:08.863Z,6.50
2023-03-03T13:58:38.404Z,6.50
2023-03-03T14:01:07.729Z,6.50
2023-03-03T14:03:55.103Z,6.49
2023-03-03T14:06:23.447Z,6.48
2023-03-03T14:08:55.752Z,6.48
2023-03-03T14:11:25.050Z,6.49
2023-03-03T14:13:55.031Z,6.51
2023-03-03T14:16:24.029Z,6.51
2023-03-03T14:18:55.352Z,6.51
2023-03-03T14:21:25.207Z,6.50
2023-03-03T14:23:57.217Z,6.49
2023-03-03T14:26:24.722Z,6.50
2023-03-03T14:28:54.218Z,6.48
2023-03-03T14:31:23.159Z,6.48
2023-03-03T14:34:00.832Z,6.47
2023-03-03T14:36:30.490Z,6.45
2023-03-03T14:38:59.785Z,6.43
2023-03-03T14:41:37.404Z,6.43
2023-03-03T14:44:19.804Z,6.45
2023-03-03T14:46:47.337Z,6.45
2023-03-03T14:49:15.898Z,6.47
2023-03-03T14:51:44.282Z,6.50
2023-03-03T14:54:22.593Z,6.53
2023-03-03T14:56:57.435Z,6.56
2023-03-03T14:59:26.729Z,6.57
2023-03-03T15:01:58.183Z,6.59
2023-03-03T15:04:26.087Z,6.61
2023-03-03T15:06:54.229Z,6.61
2023-03-03T15:09:27.832Z,6.62
2023-03-03T15:11:56.011Z,6.62
2023-03-03T15:14:30.334Z,6.60
2023-03-03T15:16:58.304Z,6.60
2023-03-03T15:19:30.974Z,6.60
2023-03-03T15:22:01.118Z,6.59
2023-03-03T15:24:32.590Z,6.58
2023-03-03T15:27:00.987Z,6.58
2023-03-03T15:29:30.529Z,6.58
2023-03-03T15:31:59.233Z,6.58
2023-03-03T15:34:28.782Z,6.59
2023-03-03T15:36:58.264Z,6.57
2023-03-03T15:39:26.909Z,6.58
2023-03-03T15:41:58.453Z,6.57
2023-03-03T15:44:28.047Z,6.57
2023-03-03T15:47:00.888Z,6.56
2023-03-03T15:49:35.684Z,6.54
2023-03-03T15:52:12.499Z,6.55
2023-03-03T15:54:42.093Z,6.56
2023-03-03T15:57:16.425Z,6.55
2023-03-03T15:59:58.875Z,6.55
2023-03-03T16:02:26.675Z,6.54
2023-03-03T16:04:55.755Z,6.53
2023-03-03T16:07:27.327Z,6.52
2023-03-03T16:09:57.484Z,6.52
2023-03-03T16:12:28.033Z,6.52
2023-03-03T16:14:59.076Z,6.52
2023-03-03T16:17:27.896Z,6.52
2023-03-03T16:19:57.975Z,6.50
2023-03-03T16:22:28.523Z,6.48
2023-03-03T16:24:59.597Z,6.48
2023-03-03T16:27:29.275Z,6.47
2023-03-03T16:30:05.451Z,6.45
2023-03-03T16:32:34.491Z,6.44
2023-03-03T16:35:03.238Z,6.42
2023-03-03T16:37:31.674Z,6.43
2023-03-03T16:40:01.884Z,6.42
2023-03-03T16:42:31.271Z,6.42
2023-03-03T16:45:02.364Z,6.42
2023-03-03T16:47:34.780Z,6.40
2023-03-03T16:50:06.870Z,6.39
2023-03-03T16:52:35.272Z,6.38
2023-03-03T16:55:04.444Z,6.37
2023-03-03T16:57:34.466Z,6.36
2023-03-03T17:00:04.869Z,6.35
2023-03-03T17:02:50.239Z,6.34
2023-03-03T17:05:19.520Z,6.33
2023-03-03T17:07:50.163Z,6.30
2023-03-03T17:10:18.847Z,6.28
2023-03-03T17:12:58.452Z,6.26
2023-03-03T17:15:35.587Z,6.25
2023-03-03T17:18:05.393Z,6.23
2023-03-03T17:20:33.985Z,6.22
2023-03-03T17:23:12.351Z,6.21
2023-03-03T17:25:41.598Z,6.20
2023-03-03T17:28:13.417Z,6.20
2023-03-03T17:30:42.932Z,6.19
2023-03-03T17:33:21.069Z,6.17
2023-03-03T17:36:07.235Z,6.17
2023-03-03T17:38:37.262Z,6.14
2023-03-03T17:41:05.325Z,6.12
2023-03-03T17:43:35.522Z,6.11
2023-03-03T17:46:03.630Z,6.10
2023-03-03T17:48:36.743Z,6.09
2023-03-03T17:51:11.330Z,6.08
2023-03-03T17:53:44.066Z,6.08
2023-03-03T17:56:17.538Z,6.09
2023-03-03T17:58:51.113Z,6.08
2023-03-03T18:01:21.498Z,6.06
2023-03-03T18:03:56.066Z,6.05
2023-03-03T18:06:30.726Z,6.05
2023-03-03T18:09:13.339Z,6.04
2023-03-03T18:11:59.931Z,6.05
2023-03-03T18:14:42.402Z,6.04
2023-03-03T18:17:14.811Z,6.04
2023-03-03T18:19:56.500Z,6.02
2023-03-03T18:22:25.481Z,6.00
2023-03-03T18:24:57.347Z,6.02
2023-03-03T18:27:32.273Z,6.01
2023-03-03T18:30:17.503Z,6.01
2023-03-03T18:32:48.374Z,5.99
2023-03-03T18:35:25.800Z,5.99
2023-03-03T18:37:53.540Z,6.00
2023-03-03T18:40:22.937Z,5.99
2023-03-03T18:42:53.804Z,5.98
2023-03-03T18:45:45.072Z,5.97
2023-03-03T18:48:14.493Z,5.94
2023-03-03T18:50:42.352Z,5.93
2023-03-03T18:53:13.782Z,5.91
2023-03-03T18:55:42.053Z,5.91
2023-03-03T18:58:28.337Z,5.90
2023-03-03T19:00:56.611Z,5.89
2023-03-03T19:03:34.292Z,5.88
2023-03-03T19:06:02.635Z,5.87
2023-03-03T19:08:31.125Z,5.85
2023-03-03T19:10:59.785Z,5.84
2023-03-03T19:13:49.180Z,5.84
2023-03-03T19:16:30.721Z,5.83
2023-03-03T19:19:16.117Z,5.80
2023-03-03T19:21:47.966Z,5.78
2023-03-03T19:24:26.664Z,5.78
2023-03-03T19:26:59.876Z,5.76
2023-03-03T19:29:33.112Z,5.74
2023-03-03T19:32:05.269Z,5.75
2023-03-03T19:34:33.854Z,5.75
2023-03-03T19:37:04.106Z,5.75
2023-03-03T19:39:39.438Z,5.74
2023-03-03T19:42:08.268Z,5.74
2023-03-03T19:44:40.410Z,5.73
2023-03-03T19:47:09.587Z,5.73
2023-03-03T19:49:44.826Z,5.72
2023-03-03T19:52:14.981Z,5.72
2023-03-03T19:54:58.615Z,5.72
2023-03-03T19:57:29.580Z,5.73
2023-03-03T19:59:58.040Z,5.72
2023-03-03T20:02:28.207Z,5.73
2023-03-03T20:04:58.446Z,5.72
2023-03-03T20:07:31.204Z,5.71
2023-03-03T20:10:01.241Z,5.70
2023-03-03T20:12:34.717Z,5.71
2023-03-03T20:15:06.135Z,5.69
2023-03-03T20:17:40.015Z,5.70
2023-03-03T20:20:09.738Z,5.70
2023-03-03T20:22:41.529Z,5.69
2023-03-03T20:25:14.380Z,5.70
2023-03-03T20:27:46.756Z,5.70
2023-03-03T20:30:17.907Z,5.69
2023-03-03T20:32:58.373Z,5.68
2023-03-03T20:35:28.739Z,5.69
2023-03-03T20:37:58.857Z,5.68
2023-03-03T20:40:30.763Z,5.68
2023-03-03T20:42:59.584Z,5.68
2023-03-03T20:45:28.973Z,5.67
2023-03-03T20:47:59.500Z,5.67
2023-03-03T20:50:28.693Z,5.66
2023-03-03T20:53:02.115Z,5.66
2023-03-03T20:55:31.492Z,5.66
2023-03-03T20:58:00.783Z,5.66
2023-03-03T21:00:30.296Z,5.67
2023-03-03T21:03:00.935Z,5.66
2023-03-03T21:05:29.155Z,5.66
2023-03-03T21:07:57.596Z,5.65
2023-03-03T21:10:27.348Z,5.63
2023-03-03T21:12:55.030Z,5.63
2023-03-03T21:15:24.417Z,5.63
2023-03-03T21:17:51.913Z,5.63
2023-03-03T21:20:20.391Z,5.63
2023-03-03T21:22:47.857Z,5.63
2023-03-03T21:25:30.234Z,5.64
2023-03-03T21:28:12.655Z,5.64
2023-03-03T21:30:55.080Z,5.63
2023-03-03T21:33:41.478Z,5.63
2023-03-03T21:36:10.407Z,5.61
2023-03-03T21:38:38.995Z,5.61
2023-03-03T21:41:06.618Z,5.61
2023-03-03T21:43:34.848Z,5.59
2023-03-03T21:46:02.454Z,5.59
2023-03-03T21:48:29.995Z,5.57
2023-03-03T21:50:57.461Z,5.56
2023-03-03T21:53:26.637Z,5.57
2023-03-03T21:55:54.379Z,5.57
2023-03-03T21:58:21.848Z,5.57
2023-03-03T22:00:49.280Z,5.57
2023-03-03T22:03:18.683Z,5.57
2023-03-03T22:05:46.175Z,5.56
2023-03-03T22:08:13.711Z,5.56
2023-03-03T22:10:42.590Z,5.55
2023-03-03T22:13:10.033Z,5.55
2023-03-03T22:15:37.480Z,5.54
2023-03-03T22:18:05.159Z,5.54
2023-03-03T22:20:32.687Z,5.53
2023-03-03T22:23:00.179Z,5.53
2023-03-03T22:25:27.675Z,5.53
2023-03-03T22:27:56.547Z,5.53
2023-03-03T22:30:24.044Z,5.53
2023-03-03T22:32:54.639Z,5.53
2023-03-03T22:35:22.362Z,5.52
2023-03-03T22:37:49.911Z,5.53
2023-03-03T22:40:17.759Z,5.52
2023-03-03T22:42:45.275Z,5.53
2023-03-03T22:45:14.354Z,5.53
2023-03-03T22:47:41.867Z,5.53
2023-03-03T22:50:10.090Z,5.52
2023-03-03T22:52:37.596Z,5.51
2023-03-03T22:55:05.496Z,5.52
2023-03-03T22:57:32.952Z,5.52
2023-03-03T23:00:02.370Z,5.52
2023-03-03T23:02:31.426Z,5.52
2023-03-03T23:05:01.689Z,5.51
2023-03-03T23:07:29.368Z,5.52
2023-03-03T23:09:57.015Z,5.51
2023-03-03T23:12:24.610Z,5.52
2023-03-03T23:14:52.118Z,5.52
2023-03-03T23:17:19.652Z,5.51
2023-03-03T23:19:49.051Z,5.50
2023-03-03T23:22:16.759Z,5.50
2023-03-03T23:24:44.226Z,5.49
2023-03-03T23:27:12.317Z,5.49
2023-03-03T23:29:39.875Z,5.49
2023-03-03T23:32:07.477Z,5.49
2023-03-03T23:34:34.985Z,5.48
2023-03-03T23:37:03.906Z,5.49
2023-03-03T23:39:31.413Z,5.48
2023-03-03T23:41:58.915Z,5.48
2023-03-03T23:44:26.411Z,5.47
2023-03-03T23:46:54.448Z,5.47
2023-03-03T23:49:21.996Z,5.46
2023-03-03T23:51:49.517Z,5.46
2023-03-03T23:54:18.340Z,5.45
2023-03-03T23:56:45.866Z,5.45
2023-03-03T23:59:13.363Z,5.45
